Portada
METAR-TAF:

METAR-TAF

Aeropuertos :

Aeropuerto Internacional Bonriki

Tarawa, Kiribati

latitud: 01-21N, longitud: 172-55E, altitud: 2 m

Observación

El informe se hizo hace 49 minutos, a las 19:00 UTC
Viento 5 kt del oeste-suroeste
Temperatura 28°C
Humedad 84%
Presión 1010 hPa
Visibilidad 10 km o más
Escasas nubes a una altura de 1800 ft, Cumulus congestus.
Nubes dispersas a una altura de 4000 ft
Cielo nuboso a una altura de 10000 ft

METAR: NGTA 211900Z 25005KT 9999 FEW018TCU SCT040 BKN100 28/25 Q1010

Hora: 09:49 (19:49 UTC)

Pronóstico

El informe se hizo hace 2 horas y 33 minutos, a las 17:16 UTC
Pronóstico válido del 21 a las 18 UTC al 22 a las 18 UTC
Viento 6 kt del sur-suroeste
Visibilidad 10 km o más
Nubes dispersas a una altura de 1800 ft

TAF: NGTA 211716Z 2118/2218 21006KT 9999 SCT018

Observaciones y pronósticos meteorológicos de más de 4000 aeropuertos (mensajes METAR y TAF).

Los puntos amarillos y rojos representan las estaciones disponibles.

Ponga el ratón en el punto deseado para ver el nombre de la estación.

Haga clic para ver las observaciones y los pronósticos meteorológicos.

Para cambiar el mapa : haga clic en los botones verdes con una cruz de color negro para hacer un zoom, en el botón verde con un guión para alejar o en las flechas verdes para mapas adyacentes.


METAR-TAF: